createdAt,value
2022-11-08T03:52:53.683Z,100022.82
2022-11-08T03:55:24.540Z,100036.37
2022-11-08T03:57:53.779Z,100033.20
2022-11-08T04:00:24.994Z,100037.05
2022-11-08T04:02:55.551Z,100037.02
2022-11-08T04:05:23.724Z,100036.20
2022-11-08T04:07:51.909Z,100037.45
2022-11-08T04:10:20.373Z,100036.26
2022-11-08T04:13:07.598Z,100029.70
2022-11-08T04:15:36.219Z,100028.73
2022-11-08T04:18:23.439Z,100033.05
2022-11-08T04:21:10.711Z,100033.30
2022-11-08T04:23:39.118Z,100036.55
2022-11-08T04:26:08.608Z,100038.88
2022-11-08T04:28:37.976Z,100040.67
2022-11-08T04:31:09.434Z,100039.07
2022-11-08T04:33:37.911Z,100036.03
2022-11-08T04:36:09.922Z,100034.07
2022-11-08T04:38:38.881Z,100036.91
2022-11-08T04:41:18.633Z,100040.56
2022-11-08T04:43:47.935Z,100039.13
2022-11-08T04:46:19.504Z,100039.91
2022-11-08T04:48:51.271Z,100037.50
2022-11-08T04:51:21.994Z,100035.44
2022-11-08T04:53:50.637Z,100034.16
2022-11-08T04:56:20.891Z,100029.72
2022-11-08T04:58:52.058Z,100026.27
2022-11-08T05:01:29.384Z,100023.44
2022-11-08T05:03:58.715Z,100020.50
2022-11-08T05:06:30.263Z,100023.79
2022-11-08T05:09:00.081Z,100024.98
2022-11-08T05:11:30.192Z,100026.73
2022-11-08T05:13:58.891Z,100022.61
2022-11-08T05:16:32.349Z,100028.59
2022-11-08T05:19:00.975Z,100032.06
2022-11-08T05:21:48.159Z,100028.69
2022-11-08T05:24:18.195Z,100029.31
2022-11-08T05:26:48.039Z,100027.33
2022-11-08T05:29:17.105Z,100029.40
2022-11-08T05:31:45.384Z,100030.50
2022-11-08T05:34:13.684Z,100030.20
2022-11-08T05:36:42.140Z,100034.65
2022-11-08T05:39:10.720Z,100033.55
2022-11-08T05:41:38.975Z,100036.60
2022-11-08T05:44:07.379Z,100036.95
2022-11-08T05:46:35.856Z,100040.70
2022-11-08T05:49:04.234Z,100042.66
2022-11-08T05:51:32.676Z,100046.71
2022-11-08T05:54:00.920Z,100043.65
2022-11-08T05:56:29.161Z,100048.75
2022-11-08T05:58:57.659Z,100054.42
2022-11-08T06:01:26.344Z,100057.46
2022-11-08T06:03:54.722Z,100060.05
2022-11-08T06:06:23.319Z,100057.70
2022-11-08T06:08:51.906Z,100059.60
2022-11-08T06:11:26.208Z,100061.83
2022-11-08T06:13:55.398Z,100062.17
2022-11-08T06:16:24.385Z,100066.89
2022-11-08T06:18:52.763Z,100067.57
2022-11-08T06:21:22.107Z,100069.52
2022-11-08T06:23:53.770Z,100067.24
2022-11-08T06:26:24.251Z,100066.20
2022-11-08T06:28:52.523Z,100074.63
2022-11-08T06:31:20.882Z,100076.16
2022-11-08T06:33:50.523Z,100081.66
2022-11-08T06:36:18.883Z,100082.48
2022-11-08T06:38:47.201Z,100077.77
2022-11-08T06:41:19.655Z,100076.02
2022-11-08T06:43:49.020Z,100074.24
2022-11-08T06:46:17.514Z,100077.17
2022-11-08T06:48:46.203Z,100073.95
2022-11-08T06:51:14.689Z,100067.92
2022-11-08T06:53:43.273Z,100070.49
2022-11-08T06:56:12.323Z,100071.36
2022-11-08T06:58:40.741Z,100067.35
2022-11-08T07:01:11.111Z,100069.97
2022-11-08T07:03:39.679Z,100075.81
2022-11-08T07:06:08.470Z,100066.59
2022-11-08T07:08:36.905Z,100071.70
2022-11-08T07:11:05.399Z,100071.11
2022-11-08T07:13:33.773Z,100070.17
2022-11-08T07:16:02.971Z,100072.35
2022-11-08T07:18:32.012Z,100071.41
2022-11-08T07:21:02.304Z,100073.43
2022-11-08T07:23:31.177Z,100073.62
2022-11-08T07:26:07.453Z,100074.95
2022-11-08T07:28:36.166Z,100074.78
2022-11-08T07:31:05.108Z,100071.08
2022-11-08T07:33:33.957Z,100071.29
2022-11-08T07:36:03.202Z,100069.30
2022-11-08T07:38:31.802Z,100068.75
2022-11-08T07:41:01.501Z,100065.14
2022-11-08T07:43:30.952Z,100071.07
2022-11-08T07:46:11.070Z,100071.91
2022-11-08T07:48:39.535Z,100069.95
2022-11-08T07:51:07.854Z,100071.14
2022-11-08T07:53:36.188Z,100071.31
2022-11-08T07:56:04.875Z,100070.95
2022-11-08T07:58:34.598Z,100075.19
2022-11-08T08:01:04.423Z,100075.00
2022-11-08T08:03:33.327Z,100074.31
2022-11-08T08:06:01.870Z,100076.15
2022-11-08T08:08:30.419Z,100076.92
2022-11-08T08:11:00.973Z,100075.42
2022-11-08T08:13:29.464Z,100075.29
2022-11-08T08:16:00.097Z,100074.29
2022-11-08T08:18:29.887Z,100077.59
2022-11-08T08:20:58.508Z,100070.23
2022-11-08T08:23:27.582Z,100070.12
2022-11-08T08:25:56.227Z,100070.96
2022-11-08T08:28:25.066Z,100067.19
2022-11-08T08:30:53.342Z,100069.98
2022-11-08T08:33:29.952Z,100069.52
2022-11-08T08:36:02.062Z,100071.35
2022-11-08T08:38:31.564Z,100068.70
2022-11-08T08:41:01.285Z,100070.06
2022-11-08T08:43:32.709Z,100069.05
2022-11-08T08:46:03.245Z,100071.27
2022-11-08T08:48:33.508Z,100071.35
2022-11-08T08:51:01.817Z,100071.56
2022-11-08T08:53:30.405Z,100073.27
2022-11-08T08:55:58.618Z,100073.90
2022-11-08T08:58:26.830Z,100074.63
2022-11-08T09:03:48.742Z,100073.98
2022-11-08T09:06:17.327Z,100074.52
2022-11-08T09:08:45.708Z,100075.06
2022-11-08T09:11:13.875Z,100078.86
2022-11-08T09:13:42.454Z,100079.73
2022-11-08T09:16:10.834Z,100081.02
2022-11-08T09:18:39.340Z,100080.96
2022-11-08T09:21:07.977Z,100076.25
2022-11-08T09:23:36.253Z,100075.05
2022-11-08T09:26:06.332Z,100074.05
2022-11-08T09:28:37.230Z,100076.58
2022-11-08T09:31:11.188Z,100075.70
2022-11-08T09:33:40.867Z,100076.41
2022-11-08T09:36:13.306Z,100076.86
2022-11-08T09:38:42.201Z,100081.51
2022-11-08T09:41:51.476Z,100083.52
2022-11-08T09:44:37.647Z,100078.25
2022-11-08T09:47:16.197Z,100079.02
2022-11-08T09:50:00.509Z,100084.48
2022-11-08T09:52:31.164Z,100086.91
2022-11-08T09:55:32.291Z,100082.42
2022-11-08T09:58:26.558Z,100078.33
2022-11-08T10:00:55.317Z,100083.86
2022-11-08T10:03:25.116Z,100085.92
2022-11-08T10:05:55.923Z,100083.42
2022-11-08T10:08:40.128Z,100076.23
2022-11-08T10:11:25.049Z,100071.94
2022-11-08T10:14:11.331Z,100070.11
2022-11-08T10:16:53.568Z,100071.65
2022-11-08T10:19:35.449Z,100075.71
2022-11-08T10:22:18.341Z,100077.45
2022-11-08T10:25:02.396Z,100080.23
2022-11-08T10:27:38.878Z,100078.97
2022-11-08T10:30:30.784Z,100078.63
2022-11-08T10:32:59.674Z,100080.74
2022-11-08T10:35:38.630Z,100077.34
2022-11-08T10:38:30.704Z,100074.20
2022-11-08T10:41:11.432Z,100076.23
2022-11-08T10:43:47.255Z,100074.19
2022-11-08T10:46:42.604Z,100070.12
2022-11-08T10:49:26.484Z,100061.65
2022-11-08T10:52:16.412Z,100061.61
2022-11-08T10:54:53.613Z,100061.08
2022-11-08T10:57:25.674Z,100058.77
2022-11-08T10:59:56.011Z,100058.50
2022-11-08T11:02:35.614Z,100060.29
2022-11-08T11:05:16.069Z,100056.64
2022-11-08T11:07:59.199Z,100060.56
2022-11-08T11:10:34.860Z,100055.82
2022-11-08T11:13:28.709Z,100052.44
2022-11-08T11:15:57.607Z,100052.12
2022-11-08T11:18:46.054Z,100050.73
2022-11-08T11:21:17.710Z,100052.43
2022-11-08T11:23:52.371Z,100053.15
2022-11-08T11:26:29.511Z,100056.30
2022-11-08T11:29:21.631Z,100055.76
2022-11-08T11:31:53.019Z,100052.72
2022-11-08T11:34:32.768Z,100052.27
2022-11-08T11:37:10.715Z,100052.80
2022-11-08T11:39:51.718Z,100052.04
2022-11-08T11:42:47.857Z,100049.58
2022-11-08T11:45:58.664Z,100047.85
2022-11-08T11:48:33.889Z,100055.01
2022-11-08T11:51:02.406Z,100060.16
2022-11-08T11:53:33.212Z,100060.42
2022-11-08T11:56:20.920Z,100062.53
2022-11-08T11:59:04.291Z,100057.89
2022-11-08T12:02:08.621Z,100053.35
2022-11-08T12:05:03.199Z,100057.85
2022-11-08T12:07:35.389Z,100058.06
2022-11-08T12:10:14.279Z,100058.88
2022-11-08T12:13:07.034Z,100061.39
2022-11-08T12:15:50.531Z,100058.09
2022-11-08T12:18:42.593Z,100063.58
2022-11-08T12:21:30.072Z,100069.27
2022-11-08T12:24:04.529Z,100063.16
2022-11-08T12:26:52.513Z,100063.81
2022-11-08T12:29:23.629Z,100062.44
2022-11-08T12:31:58.854Z,100059.13
